Time;durP1;ratioP1;P1;durP2;ratioP2;P2;SDS_P1;SDS_P2;PMS_P1;PMS_P2;Temp;Humidity;BMP_temperature;BMP_pressure;BME280_temperature;BME280_humidity;BME280_pressure;Samples;Min_cycle;Max_cycle;Signal;HPM_P1;HPM_P2
2023/04/04 00:01:24;;;;;;;7.88;2.42;;;2.50;99.90;;;;;;5089105;28;20119;-74
2023/04/04 00:03:50;;;;;;;5.03;2.42;;;1.50;99.90;;;;;;5089301;28;20052;-75
2023/04/04 00:06:20;;;;;;;8.90;2.13;;;1.50;99.90;;;;;;5072428;28;20048;-74
2023/04/04 00:08:46;;;;;;;5.60;2.00;;;1.50;99.90;;;;;;5090449;28;20039;-77
2023/04/04 00:11:12;;;;;;;4.60;2.08;;;1.50;99.90;;;;;;5091046;28;20170;-75
2023/04/04 00:13:39;;;;;;;5.43;2.17;;;1.50;99.90;;;;;;5089169;28;20064;-73
2023/04/04 00:16:05;;;;;;;4.78;1.80;;;1.40;99.90;;;;;;5089010;28;20044;-73
2023/04/04 00:18:31;;;;;;;5.82;2.33;;;1.40;99.90;;;;;;5088895;28;20044;-74
2023/04/04 00:20:57;;;;;;;5.28;2.30;;;1.40;99.90;;;;;;5088860;28;20146;-73
2023/04/04 00:23:23;;;;;;;4.28;2.30;;;1.30;99.90;;;;;;5090343;28;20503;-74
2023/04/04 00:25:52;;;;;;;5.15;1.95;;;1.30;99.90;;;;;;5090289;28;20124;-73
2023/04/04 00:28:19;;;;;;;7.95;2.58;;;1.30;99.90;;;;;;5090545;28;20043;-74
2023/04/04 00:30:45;;;;;;;5.55;2.60;;;1.20;99.90;;;;;;5088473;28;20047;-74
2023/04/04 00:33:12;;;;;;;8.23;2.60;;;1.20;99.90;;;;;;5088735;28;20574;-73
2023/04/04 00:35:37;;;;;;;7.82;3.30;;;1.20;99.90;;;;;;5089895;28;20040;-73
2023/04/04 00:38:03;;;;;;;6.25;2.47;;;1.10;99.90;;;;;;5090493;28;20040;-73
2023/04/04 00:40:29;;;;;;;5.55;2.72;;;1.10;99.90;;;;;;5090189;28;20082;-73
2023/04/04 00:42:55;;;;;;;5.22;2.40;;;1.10;99.90;;;;;;5090593;28;20047;-74
2023/04/04 00:45:21;;;;;;;6.53;2.97;;;1.10;99.90;;;;;;5090557;28;20036;-73
2023/04/04 00:47:49;;;;;;;6.10;2.70;;;1.10;99.90;;;;;;5088656;28;20059;-75
2023/04/04 00:50:15;;;;;;;11.50;3.45;;;1.10;99.90;;;;;;5089885;28;20036;-74
2023/04/04 00:52:41;;;;;;;6.78;3.08;;;1.00;99.90;;;;;;5089184;28;20176;-74
2023/04/04 00:55:07;;;;;;;5.65;3.20;;;1.70;99.90;;;;;;5088654;28;20076;-74
2023/04/04 00:57:33;;;;;;;7.78;3.88;;;1.00;99.90;;;;;;5071936;28;20040;-74
2023/04/04 01:00:04;;;;;;;9.13;3.10;;;1.00;99.90;;;;;;5089677;28;20512;-74
2023/04/04 01:02:30;;;;;;;7.43;3.60;;;1.00;99.90;;;;;;5090318;28;20048;-73
2023/04/04 01:04:56;;;;;;;8.38;3.80;;;0.90;99.90;;;;;;5089735;28;20101;-74
2023/04/04 01:07:22;;;;;;;9.77;4.30;;;0.90;99.90;;;;;;5088553;28;20393;-74
2023/04/04 01:09:48;;;;;;;13.68;3.85;;;0.90;99.90;;;;;;5088450;28;20063;-74
2023/04/04 01:12:14;;;;;;;8.13;3.53;;;0.80;99.90;;;;;;5089769;28;20044;-73
2023/04/04 01:14:40;;;;;;;9.48;4.20;;;0.80;99.90;;;;;;5088570;28;20058;-73
2023/04/04 01:17:06;;;;;;;11.40;4.00;;;1.30;99.90;;;;;;5089841;28;20450;-74
2023/04/04 01:19:36;;;;;;;6.32;2.97;;;0.80;99.90;;;;;;5088705;28;20090;-73
2023/04/04 01:22:05;;;;;;;9.63;3.75;;;0.80;99.90;;;;;;5087907;28;20098;-76
2023/04/04 01:24:33;;;;;;;7.00;3.38;;;0.80;99.90;;;;;;5089479;28;20056;-74
2023/04/04 01:26:59;;;;;;;10.45;3.55;;;0.70;99.90;;;;;;5087776;28;20055;-75
2023/04/04 01:29:26;;;;;;;8.05;3.40;;;0.70;99.90;;;;;;5088043;28;20518;-74
2023/04/04 01:32:19;;;;;;;6.55;3.20;;;0.70;99.90;;;;;;5087857;28;20515;-74
2023/04/04 01:35:06;;;;;;;7.72;3.65;;;0.70;99.90;;;;;;5085274;28;20060;-73
2023/04/04 01:37:42;;;;;;;5.60;3.15;;;0.60;99.90;;;;;;5088103;28;20457;-74
2023/04/04 01:40:20;;;;;;;6.55;3.30;;;-0.30;99.90;;;;;;5087648;28;20366;-73
2023/04/04 01:42:48;;;;;;;7.85;3.25;;;0.50;99.90;;;;;;5087847;28;20434;-74
2023/04/04 01:45:13;;;;;;;5.00;2.60;;;0.50;99.90;;;;;;5086625;28;20055;-73
2023/04/04 01:47:40;;;;;;;5.95;2.63;;;0.50;99.90;;;;;;5088992;28;20048;-75
2023/04/04 01:50:10;;;;;;;6.82;2.83;;;0.40;99.90;;;;;;5087548;28;20215;-73
2023/04/04 01:52:36;;;;;;;5.32;2.42;;;0.40;99.90;;;;;;5089010;28;20067;-73
2023/04/04 01:55:03;;;;;;;8.57;3.28;;;0.40;99.90;;;;;;5088760;28;20492;-74
2023/04/04 01:57:29;;;;;;;6.97;3.35;;;0.40;99.90;;;;;;5088663;28;20120;-73
2023/04/04 01:59:55;;;;;;;8.27;3.92;;;0.40;99.90;;;;;;5050139;28;20055;-73
2023/04/04 02:02:21;;;;;;;10.15;3.60;;;0.40;99.90;;;;;;5086779;28;20050;-74
2023/04/04 02:04:47;;;;;;;11.15;3.88;;;0.40;99.90;;;;;;5086623;28;20051;-74
2023/04/04 02:07:13;;;;;;;6.30;3.80;;;0.40;99.90;;;;;;5088957;28;20465;-74
2023/04/04 02:09:39;;;;;;;8.80;3.70;;;0.40;99.90;;;;;;5087226;28;20048;-74
2023/04/04 02:12:05;;;;;;;8.25;3.38;;;0.40;99.90;;;;;;5086156;28;20116;-75
2023/04/04 02:14:31;;;;;;;10.25;3.35;;;0.50;99.90;;;;;;5088213;28;20044;-73
2023/04/04 02:16:57;;;;;;;6.63;3.20;;;0.50;99.90;;;;;;5088894;28;20396;-74
2023/04/04 02:19:23;;;;;;;11.02;3.70;;;0.50;99.90;;;;;;5087203;28;20040;-74
2023/04/04 02:21:49;;;;;;;8.70;3.70;;;0.40;99.90;;;;;;5087987;28;20047;-74
2023/04/04 02:24:15;;;;;;;10.40;3.80;;;0.90;99.90;;;;;;5070114;28;20500;-74
2023/04/04 02:26:40;;;;;;;10.15;3.65;;;0.40;99.90;;;;;;5087702;28;20036;-73
2023/04/04 02:29:06;;;;;;;7.45;3.63;;;0.50;99.90;;;;;;5088539;28;20052;-74
2023/04/04 02:31:32;;;;;;;7.60;3.85;;;0.50;99.90;;;;;;5089137;28;20060;-74
2023/04/04 02:33:58;;;;;;;9.60;4.10;;;0.40;99.90;;;;;;5087815;28;20109;-72
2023/04/04 02:36:23;;;;;;;12.10;4.00;;;0.40;99.90;;;;;;5089072;28;20044;-73
2023/04/04 02:38:49;;;;;;;13.73;4.28;;;0.40;99.90;;;;;;5088861;28;20047;-73
2023/04/04 02:41:15;;;;;;;9.43;4.07;;;0.50;99.90;;;;;;5086946;28;20160;-75
2023/04/04 02:43:41;;;;;;;11.40;3.50;;;0.90;99.90;;;;;;5087753;28;20055;-73
2023/04/04 02:46:06;;;;;;;7.75;3.70;;;0.40;99.90;;;;;;5088849;28;20173;-73
2023/04/04 02:48:32;;;;;;;9.65;3.55;;;0.40;99.90;;;;;;5088778;28;20130;-73
2023/04/04 02:50:58;;;;;;;7.63;3.95;;;0.50;99.90;;;;;;5089052;28;20511;-74
2023/04/04 02:53:23;;;;;;;11.68;4.13;;;1.10;99.90;;;;;;5087370;28;20040;-74
2023/04/04 02:55:49;;;;;;;9.75;3.90;;;0.40;99.90;;;;;;5091573;28;20036;-74
2023/04/04 02:58:15;;;;;;;9.18;4.32;;;0.40;99.90;;;;;;5091282;28;20143;-74
2023/04/04 03:00:40;;;;;;;9.80;4.47;;;0.40;99.90;;;;;;5092920;28;20120;-75
2023/04/04 03:03:06;;;;;;;8.40;4.05;;;0.40;99.90;;;;;;5093138;28;20055;-73
2023/04/04 03:05:32;;;;;;;9.88;3.55;;;0.40;99.90;;;;;;5091304;28;20052;-74
2023/04/04 03:07:58;;;;;;;8.40;3.92;;;0.40;99.90;;;;;;5090894;28;20047;-74
2023/04/04 03:10:25;;;;;;;8.35;3.90;;;0.40;99.90;;;;;;5090499;28;20082;-75
2023/04/04 03:12:52;;;;;;;13.95;4.72;;;0.40;99.90;;;;;;5091170;28;20180;-73
2023/04/04 03:15:18;;;;;;;9.10;4.00;;;0.30;99.90;;;;;;5090780;28;20048;-74
2023/04/04 03:17:44;;;;;;;7.97;3.80;;;0.30;99.90;;;;;;5091011;28;20082;-73
2023/04/04 03:20:16;;;;;;;10.48;3.70;;;0.30;99.90;;;;;;5091012;28;20055;-75
2023/04/04 03:22:42;;;;;;;10.48;3.95;;;0.30;99.90;;;;;;5091124;28;20411;-74
2023/04/04 03:25:08;;;;;;;9.13;3.85;;;0.30;99.90;;;;;;5091801;28;20036;-74
2023/04/04 03:27:34;;;;;;;7.80;3.75;;;0.20;99.90;;;;;;5091926;28;20074;-74
2023/04/04 03:30:00;;;;;;;9.75;3.67;;;0.20;99.90;;;;;;5090781;28;20124;-73
2023/04/04 03:32:26;;;;;;;9.90;4.05;;;0.20;99.90;;;;;;5091395;28;20415;-74
2023/04/04 03:34:52;;;;;;;7.45;3.38;;;0.10;99.90;;;;;;5090642;28;20135;-74
2023/04/04 03:37:18;;;;;;;6.65;3.90;;;0.10;99.90;;;;;;5091731;28;20140;-74
2023/04/04 03:39:44;;;;;;;9.63;3.75;;;0.10;99.90;;;;;;5090666;28;20062;-75
2023/04/04 03:42:09;;;;;;;9.27;3.53;;;0.00;99.90;;;;;;5090033;28;20044;-75
2023/04/04 03:44:38;;;;;;;7.80;3.92;;;0.10;99.90;;;;;;5090202;28;20066;-74
2023/04/04 03:47:04;;;;;;;12.48;3.97;;;0.00;99.90;;;;;;5091235;28;20555;-73
2023/04/04 03:49:31;;;;;;;9.13;3.47;;;0.00;99.90;;;;;;5090054;28;20126;-74
2023/04/04 03:51:57;;;;;;;8.98;4.40;;;-0.10;99.90;;;;;;5090070;28;20040;-74
2023/04/04 03:54:23;;;;;;;6.72;3.40;;;0.00;99.90;;;;;;5091398;28;20106;-74
2023/04/04 03:56:48;;;;;;;6.93;3.55;;;-0.10;99.90;;;;;;5091141;28;20048;-74
2023/04/04 03:59:14;;;;;;;8.32;3.70;;;-0.20;99.90;;;;;;5089732;28;20074;-74
2023/04/04 04:01:40;;;;;;;7.20;3.60;;;-0.20;99.90;;;;;;5089553;28;20048;-74
2023/04/04 04:04:05;;;;;;;10.90;3.78;;;-0.20;99.90;;;;;;5089832;28;20481;-73
2023/04/04 04:06:31;;;;;;;6.78;3.70;;;0.60;99.90;;;;;;5090815;28;20044;-74
2023/04/04 04:08:57;;;;;;;9.77;3.78;;;-0.20;99.90;;;;;;5091228;28;20032;-73
2023/04/04 04:11:23;;;;;;;8.55;3.42;;;-0.20;99.90;;;;;;5089324;28;20040;-74
2023/04/04 04:13:48;;;;;;;7.85;3.60;;;-0.20;99.90;;;;;;5089610;28;20096;-74
2023/04/04 04:16:14;;;;;;;9.68;4.03;;;-0.20;99.90;;;;;;5090699;28;20036;-74
2023/04/04 04:18:39;;;;;;;7.32;3.90;;;-0.30;99.90;;;;;;5091109;28;20036;-73
2023/04/04 04:21:05;;;;;;;5.85;3.55;;;-0.30;99.90;;;;;;5089231;28;20048;-74
2023/04/04 04:23:31;;;;;;;7.93;3.75;;;-0.30;99.90;;;;;;5090886;28;20241;-73
2023/04/04 04:25:57;;;;;;;9.18;4.30;;;0.60;99.90;;;;;;5089051;28;20457;-74
2023/04/04 04:28:23;;;;;;;8.73;3.97;;;-0.30;99.90;;;;;;5089332;28;20108;-73
2023/04/04 04:30:50;;;;;;;7.65;4.15;;;-0.30;99.90;;;;;;5089103;28;20044;-73
2023/04/04 04:33:16;;;;;;;13.23;4.35;;;-0.30;99.90;;;;;;5090499;28;20044;-74
2023/04/04 04:35:41;;;;;;;14.07;4.60;;;-0.30;99.90;;;;;;5089052;28;20048;-73
2023/04/04 04:38:07;;;;;;;8.13;3.95;;;-0.30;99.90;;;;;;5089037;28;20051;-74
2023/04/04 04:40:33;;;;;;;7.47;3.80;;;-0.40;99.90;;;;;;5088420;28;20040;-73
2023/04/04 04:43:02;;;;;;;4.82;3.10;;;-0.40;99.90;;;;;;5089130;28;20056;-74
2023/04/04 04:45:28;;;;;;;7.65;3.50;;;-0.50;99.90;;;;;;5088950;28;20054;-74
2023/04/04 04:47:53;;;;;;;9.00;4.35;;;-0.50;99.90;;;;;;5088708;28;20094;-74
2023/04/04 04:50:19;;;;;;;10.00;4.40;;;-0.50;99.90;;;;;;5089015;28;20047;-74
2023/04/04 04:52:45;;;;;;;7.13;3.40;;;-0.50;99.90;;;;;;5090557;28;20075;-74
2023/04/04 04:55:11;;;;;;;6.40;3.50;;;-0.50;99.90;;;;;;5090235;28;20514;-74
2023/04/04 04:57:39;;;;;;;9.57;3.95;;;-0.50;99.90;;;;;;5089106;28;20455;-74
2023/04/04 05:00:06;;;;;;;7.75;4.13;;;-0.50;99.90;;;;;;5089041;28;20051;-74
2023/04/04 05:02:31;;;;;;;10.52;4.18;;;-0.50;99.90;;;;;;5088936;28;20158;-74
2023/04/04 05:04:57;;;;;;;9.25;4.18;;;-0.50;99.90;;;;;;5090414;28;20119;-74
2023/04/04 05:07:22;;;;;;;9.70;3.90;;;-0.50;99.90;;;;;;5090376;28;20040;-75
2023/04/04 05:09:49;;;;;;;6.65;3.80;;;-0.50;99.90;;;;;;5090284;28;20050;-74
2023/04/04 05:12:16;;;;;;;7.50;3.67;;;-0.50;99.90;;;;;;5071442;28;20052;-74
2023/04/04 05:14:42;;;;;;;8.95;3.95;;;-0.20;99.90;;;;;;5090361;28;20060;-74
2023/04/04 05:17:08;;;;;;;11.45;3.90;;;-0.50;99.90;;;;;;5087770;28;20804;-74
2023/04/04 05:19:33;;;;;;;11.55;3.92;;;-0.50;99.90;;;;;;5088797;28;20459;-74
2023/04/04 05:21:59;;;;;;;9.38;4.05;;;-0.50;99.90;;;;;;5089655;28;20066;-73
2023/04/04 05:24:24;;;;;;;10.05;4.03;;;-0.50;99.90;;;;;;5089933;28;20044;-73
2023/04/04 05:26:50;;;;;;;9.80;4.18;;;-0.50;99.90;;;;;;5089593;28;20044;-72
2023/04/04 05:29:16;;;;;;;7.65;3.83;;;-0.50;99.90;;;;;;5089863;28;20052;-73
2023/04/04 05:31:41;;;;;;;11.30;4.18;;;-0.50;99.90;;;;;;5089186;28;20040;-73
2023/04/04 05:34:07;;;;;;;8.25;4.07;;;-0.50;99.90;;;;;;5087873;28;20392;-74
2023/04/04 05:36:34;;;;;;;8.57;3.70;;;0.10;99.90;;;;;;5089863;28;20070;-73
2023/04/04 05:39:00;;;;;;;9.25;3.88;;;-0.40;99.90;;;;;;5089493;28;20055;-73
2023/04/04 05:41:26;;;;;;;6.60;3.63;;;-0.40;99.90;;;;;;5088328;28;20052;-73
2023/04/04 05:43:51;;;;;;;6.50;4.25;;;-0.40;99.90;;;;;;5088236;28;20056;-73
2023/04/04 05:46:17;;;;;;;11.40;4.20;;;-0.40;99.90;;;;;;5088521;28;20105;-73
2023/04/04 05:48:43;;;;;;;11.20;3.90;;;-0.40;99.90;;;;;;5087859;28;20052;-73
2023/04/04 05:51:09;;;;;;;9.70;4.38;;;-0.30;99.90;;;;;;5088972;28;20142;-73
2023/04/04 05:53:34;;;;;;;6.82;3.33;;;-0.40;99.90;;;;;;5089865;28;20051;-74
2023/04/04 05:56:00;;;;;;;8.50;3.33;;;-0.30;99.90;;;;;;5089551;28;20052;-73
2023/04/04 05:58:26;;;;;;;6.72;3.58;;;-0.30;99.90;;;;;;5089186;28;20069;-74
2023/04/04 06:00:51;;;;;;;6.22;3.38;;;-0.30;99.90;;;;;;5088963;28;20064;-73
2023/04/04 06:03:17;;;;;;;6.05;3.65;;;-0.30;99.90;;;;;;5089381;28;20048;-73
2023/04/04 06:05:43;;;;;;;9.20;4.15;;;-0.20;99.90;;;;;;5089158;28;20051;-73
2023/04/04 06:08:09;;;;;;;6.20;3.30;;;-0.20;99.90;;;;;;5089340;28;20084;-73
2023/04/04 06:10:35;;;;;;;8.73;3.95;;;-0.20;99.90;;;;;;5089123;28;20051;-73
2023/04/04 06:13:00;;;;;;;10.50;3.90;;;-0.20;99.90;;;;;;5088873;28;20476;-73
2023/04/04 06:15:26;;;;;;;7.82;4.32;;;-0.20;99.90;;;;;;5089081;28;20078;-73
2023/04/04 06:17:52;;;;;;;7.55;3.97;;;-0.10;99.90;;;;;;5089186;28;20055;-73
2023/04/04 06:20:19;;;;;;;11.15;4.32;;;0.30;99.90;;;;;;5089079;28;20068;-73
2023/04/04 06:22:45;;;;;;;11.70;4.57;;;0.00;99.90;;;;;;5088833;28;20055;-73
2023/04/04 06:25:13;;;;;;;8.70;4.32;;;0.10;99.90;;;;;;5089185;28;20055;-73
2023/04/04 06:27:39;;;;;;;10.05;4.43;;;0.20;99.90;;;;;;5088604;28;20071;-72
2023/04/04 06:30:05;;;;;;;10.45;4.63;;;0.20;99.90;;;;;;5089433;28;20075;-73
2023/04/04 06:32:32;;;;;;;12.02;4.47;;;0.30;99.90;;;;;;5092905;28;20048;-73
2023/04/04 06:34:58;;;;;;;7.90;3.63;;;0.40;99.90;;;;;;5090854;28;20068;-74
2023/04/04 06:37:23;;;;;;;8.93;4.13;;;0.50;99.90;;;;;;5092794;28;20078;-74
2023/04/04 06:39:49;;;;;;;9.45;4.53;;;0.50;99.90;;;;;;5092700;28;20054;-72
2023/04/04 06:42:15;;;;;;;10.15;4.55;;;0.60;99.90;;;;;;5092695;28;20040;-73
2023/04/04 06:44:41;;;;;;;8.63;4.15;;;1.50;99.90;;;;;;5092833;28;20097;-74
2023/04/04 06:47:06;;;;;;;7.00;3.92;;;0.80;99.90;;;;;;5091155;28;20083;-73
2023/04/04 06:49:32;;;;;;;8.38;3.40;;;0.90;99.90;;;;;;5092309;28;20044;-73
2023/04/04 06:51:59;;;;;;;7.45;3.58;;;1.00;99.90;;;;;;5090928;28;20477;-71
2023/04/04 06:54:25;;;;;;;7.47;3.03;;;1.00;99.90;;;;;;5091938;28;20048;-74
2023/04/04 06:56:51;;;;;;;5.43;2.90;;;1.20;99.90;;;;;;5092405;28;20069;-73
2023/04/04 06:59:17;;;;;;;4.65;2.40;;;1.30;99.90;;;;;;5092462;28;20178;-73
2023/04/04 07:01:43;;;;;;;8.10;2.60;;;1.40;99.90;;;;;;5092580;28;20080;-73
2023/04/04 07:04:09;;;;;;;7.07;3.15;;;1.50;99.90;;;;;;5092372;28;20085;-73
2023/04/04 07:06:35;;;;;;;8.02;2.78;;;1.60;99.90;;;;;;5091148;28;20158;-73
2023/04/04 07:09:03;;;;;;;7.15;2.38;;;1.70;99.90;;;;;;5092232;28;20504;-74
2023/04/04 07:11:29;;;;;;;6.85;2.30;;;1.80;99.90;;;;;;5092300;28;20048;-75
2023/04/04 07:13:55;;;;;;;4.63;2.30;;;1.90;99.90;;;;;;5090806;28;20100;-74
2023/04/04 07:16:20;;;;;;;5.43;2.53;;;2.00;99.90;;;;;;5091780;28;20045;-75
2023/04/04 07:18:46;;;;;;;6.88;2.63;;;2.10;99.90;;;;;;5093013;28;20047;-76
2023/04/04 07:21:12;;;;;;;8.82;2.60;;;2.20;99.90;;;;;;5091625;28;20059;-81
2023/04/04 07:23:38;;;;;;;6.35;2.53;;;2.30;99.90;;;;;;5084522;28;20388;-78
2023/04/04 07:26:03;;;;;;;5.35;2.30;;;2.40;99.90;;;;;;5072328;28;20051;-76
2023/04/04 07:28:30;;;;;;;5.70;2.40;;;2.50;99.90;;;;;;5070229;28;20674;-80
2023/04/04 07:31:00;;;;;;;5.97;2.17;;;2.60;99.90;;;;;;5070493;28;20053;-75
2023/04/04 07:33:26;;;;;;;9.55;2.45;;;2.70;99.90;;;;;;5090784;28;20055;-74
2023/04/04 07:35:52;;;;;;;7.45;2.50;;;2.80;99.90;;;;;;5090148;28;20199;-74
2023/04/04 07:38:18;;;;;;;6.20;2.30;;;2.90;99.90;;;;;;5091779;28;20256;-73
2023/04/04 07:40:44;;;;;;;5.10;2.17;;;3.10;99.90;;;;;;5091332;28;20067;-74
2023/04/04 07:43:09;;;;;;;7.63;2.60;;;3.20;99.90;;;;;;5091598;28;20575;-74
2023/04/04 07:45:35;;;;;;;7.72;2.67;;;3.30;99.90;;;;;;5090354;28;20046;-73
2023/04/04 07:48:01;;;;;;;6.60;2.00;;;3.40;99.90;;;;;;5091433;28;20131;-73
2023/04/04 07:50:27;;;;;;;6.57;2.30;;;3.50;99.90;;;;;;5091211;28;20400;-73
2023/04/04 07:52:57;;;;;;;8.77;2.65;;;3.60;99.90;;;;;;5089562;28;21821;-74
2023/04/04 07:55:26;;;;;;;9.57;3.10;;;3.70;99.90;;;;;;5090234;28;20094;-75
2023/04/04 07:57:52;;;;;;;8.77;2.30;;;3.80;99.90;;;;;;5089699;28;20552;-81
2023/04/04 08:00:20;;;;;;;4.72;1.90;;;3.90;99.90;;;;;;5092027;28;20048;-76
2023/04/04 08:02:51;;;;;;;4.25;2.03;;;4.10;99.90;;;;;;5092103;28;20048;-78
2023/04/04 08:05:17;;;;;;;6.82;2.33;;;4.20;99.90;;;;;;5091902;28;20040;-77
2023/04/04 08:07:42;;;;;;;9.75;2.25;;;4.30;99.90;;;;;;5091192;28;20047;-83
2023/04/04 08:10:08;;;;;;;6.50;1.80;;;4.40;99.90;;;;;;5091813;28;20055;-78
2023/04/04 08:12:34;;;;;;;5.18;1.95;;;4.50;99.90;;;;;;5091738;28;20050;-76
2023/04/04 08:15:00;;;;;;;4.65;1.80;;;4.60;99.90;;;;;;5090129;28;20052;-82
2023/04/04 08:17:27;;;;;;;4.30;1.75;;;4.70;99.90;;;;;;5091639;28;20101;-78
2023/04/04 08:19:53;;;;;;;7.30;1.98;;;4.90;99.90;;;;;;5091651;28;20510;-80
2023/04/04 08:22:18;;;;;;;5.78;1.92;;;5.20;99.90;;;;;;5090198;28;20460;-76
2023/04/04 08:24:45;;;;;;;6.72;2.00;;;5.40;99.90;;;;;;5090455;28;20052;-77
2023/04/04 08:27:11;;;;;;;4.30;1.88;;;5.70;99.90;;;;;;5091790;28;20488;-83
2023/04/04 08:29:36;;;;;;;5.22;1.73;;;6.10;99.90;;;;;;5091694;28;20046;-73
2023/04/04 08:32:03;;;;;;;3.83;1.73;;;6.30;99.90;;;;;;5091677;28;20385;-77
2023/04/04 08:34:29;;;;;;;5.68;1.73;;;6.60;99.90;;;;;;5091593;28;20044;-75
2023/04/04 08:36:55;;;;;;;4.25;1.75;;;7.00;99.90;;;;;;5089892;28;20051;-73
2023/04/04 08:39:21;;;;;;;4.38;1.60;;;7.00;99.90;;;;;;5090108;28;20396;-74
2023/04/04 08:41:52;;;;;;;4.10;1.52;;;7.40;99.90;;;;;;5091511;28;20101;-75
2023/04/04 08:44:21;;;;;;;6.78;1.83;;;7.60;99.90;;;;;;5090532;28;20459;-72
2023/04/04 08:46:48;;;;;;;4.78;1.60;;;7.90;99.90;;;;;;5090968;28;20039;-74
2023/04/04 08:49:17;;;;;;;5.00;1.40;;;8.90;99.90;;;;;;5090872;28;20044;-77
2023/04/04 08:51:45;;;;;;;6.40;1.65;;;8.40;99.90;;;;;;5091077;28;20435;-74
2023/04/04 08:54:12;;;;;;;4.75;1.95;;;8.60;99.90;;;;;;5091017;28;20097;-77
2023/04/04 08:56:37;;;;;;;5.03;1.30;;;8.70;99.90;;;;;;5091730;28;20043;-74
2023/04/04 08:59:03;;;;;;;5.28;1.42;;;9.60;99.90;;;;;;5089684;28;20052;-75
2023/04/04 09:01:29;;;;;;;7.40;1.67;;;9.10;99.90;;;;;;5089696;28;20059;-74
2023/04/04 09:04:00;;;;;;;7.78;1.80;;;9.30;99.90;;;;;;5090655;28;20040;-75
2023/04/04 09:06:27;;;;;;;5.55;1.77;;;10.00;99.90;;;;;;5091077;28;20136;-76
2023/04/04 09:08:53;;;;;;;4.72;1.50;;;9.70;99.90;;;;;;5090856;28;20051;-76
2023/04/04 09:11:21;;;;;;;5.00;1.52;;;9.90;99.90;;;;;;5090463;28;20051;-77
2023/04/04 09:13:49;;;;;;;5.85;1.80;;;10.30;99.90;;;;;;5090193;28;20040;-78
2023/04/04 09:16:15;;;;;;;5.40;1.88;;;10.80;99.90;;;;;;5088305;28;20063;-79
2023/04/04 09:18:41;;;;;;;4.93;1.60;;;10.50;99.90;;;;;;5088609;28;20104;-74
2023/04/04 09:21:11;;;;;;;3.15;1.45;;;10.70;99.90;;;;;;5090599;28;20040;-76
2023/04/04 09:23:37;;;;;;;4.82;1.48;;;10.40;99.90;;;;;;5088978;28;20130;-75
2023/04/04 09:26:03;;;;;;;6.10;1.63;;;10.60;99.90;;;;;;5090284;28;20032;-77
2023/04/04 09:28:30;;;;;;;4.65;1.73;;;10.60;99.90;;;;;;5089737;28;20052;-74
2023/04/04 09:30:58;;;;;;;5.28;1.67;;;11.20;99.90;;;;;;5089871;28;20044;-75
2023/04/04 09:33:25;;;;;;;5.85;1.60;;;10.80;99.90;;;;;;5089823;28;20048;-78
2023/04/04 09:35:57;;;;;;;4.28;1.60;;;11.30;99.90;;;;;;5090098;28;20044;-84
2023/04/04 09:38:25;;;;;;;8.43;2.15;;;11.20;99.90;;;;;;5090196;28;20050;-76
2023/04/04 09:40:51;;;;;;;7.32;1.70;;;11.20;99.90;;;;;;5088569;28;20075;-75
2023/04/04 09:43:18;;;;;;;4.68;1.88;;;11.50;99.90;;;;;;5089784;28;20055;-76
2023/04/04 09:45:44;;;;;;;4.22;1.52;;;11.50;99.90;;;;;;5088289;28;20080;-75
2023/04/04 09:48:10;;;;;;;5.57;1.45;;;11.70;99.90;;;;;;5089453;28;20044;-77
2023/04/04 09:50:44;;;;;;;3.97;1.60;;;11.60;99.90;;;;;;5086134;28;20047;-83
2023/04/04 09:53:17;;;;;;;3.65;1.67;;;11.70;99.90;;;;;;5090030;28;20051;-77
2023/04/04 09:55:49;;;;;;;5.43;1.63;;;11.80;98.60;;;;;;5089757;28;20442;-75
2023/04/04 09:58:17;;;;;;;5.30;1.85;;;12.00;99.90;;;;;;5089528;28;20507;-73
2023/04/04 10:00:47;;;;;;;6.18;2.17;;;12.20;99.90;;;;;;5089273;28;20055;-76
2023/04/04 10:03:17;;;;;;;7.35;1.58;;;12.50;99.20;;;;;;5089644;28;20590;-74
2023/04/04 10:05:47;;;;;;;7.05;2.33;;;12.50;99.90;;;;;;5093902;28;20036;-77
2023/04/04 10:08:21;;;;;;;5.72;2.00;;;12.60;99.40;;;;;;5093750;28;20123;-76
2023/04/04 10:10:48;;;;;;;7.13;1.70;;;12.60;98.10;;;;;;5093550;28;20852;-78
2023/04/04 10:13:22;;;;;;;5.57;2.05;;;12.60;99.60;;;;;;5092178;28;20504;-74
2023/04/04 10:15:48;;;;;;;6.18;2.08;;;12.70;97.40;;;;;;5092201;28;20051;-75
2023/04/04 10:18:15;;;;;;;6.15;2.03;;;12.70;97.80;;;;;;5093375;28;20059;-75
2023/04/04 10:20:42;;;;;;;6.18;2.20;;;12.90;98.70;;;;;;5093450;28;20071;-75
2023/04/04 10:23:07;;;;;;;6.72;2.30;;;12.80;99.00;;;;;;5088045;28;20496;-78
2023/04/04 10:25:35;;;;;;;4.53;2.42;;;12.90;98.80;;;;;;5093021;28;20036;-75
2023/04/04 10:28:01;;;;;;;6.75;2.25;;;12.80;97.70;;;;;;5091722;28;20131;-80
2023/04/04 10:30:27;;;;;;;7.13;2.80;;;13.00;98.60;;;;;;5093238;28;20096;-76
2023/04/04 10:33:05;;;;;;;6.18;2.42;;;13.00;97.90;;;;;;5092302;28;20067;-76
2023/04/04 10:35:33;;;;;;;7.15;3.38;;;13.00;98.00;;;;;;5071915;28;20210;-74
2023/04/04 10:38:02;;;;;;;6.97;2.60;;;13.20;98.50;;;;;;5072966;28;20120;-75
2023/04/04 10:40:37;;;;;;;6.15;2.30;;;12.90;96.70;;;;;;5072744;28;20045;-76
2023/04/04 10:43:04;;;;;;;5.75;2.03;;;13.00;95.20;;;;;;5072882;28;20044;-79
2023/04/04 10:45:37;;;;;;;5.65;2.10;;;13.00;97.20;;;;;;5072773;28;20044;-78
2023/04/04 10:48:03;;;;;;;5.35;2.05;;;13.20;96.50;;;;;;5072630;28;20055;-84
2023/04/04 10:50:33;;;;;;;4.60;1.98;;;13.10;96.50;;;;;;5071196;28;20056;-76
2023/04/04 10:53:01;;;;;;;6.90;2.00;;;13.20;96.10;;;;;;5054390;28;20110;-76
2023/04/04 10:55:28;;;;;;;6.25;2.10;;;13.10;94.10;;;;;;5070895;28;20052;-75
2023/04/04 10:57:55;;;;;;;12.07;2.38;;;13.00;96.40;;;;;;5076725;28;20054;-74
2023/04/04 11:00:23;;;;;;;5.45;1.88;;;13.00;95.90;;;;;;5091613;28;20115;-75
2023/04/04 11:02:51;;;;;;;6.13;2.00;;;12.90;95.70;;;;;;5093118;28;20148;-73
2023/04/04 11:05:45;;;;;;;9.50;2.17;;;13.10;95.50;;;;;;5094157;28;20468;-74
2023/04/04 11:08:15;;;;;;;6.90;2.20;;;13.00;94.40;;;;;;5095014;28;20105;-76
2023/04/04 11:10:49;;;;;;;6.25;2.13;;;13.10;95.00;;;;;;5094009;28;20048;-76
2023/04/04 11:13:16;;;;;;;7.93;2.20;;;13.20;94.20;;;;;;5095181;28;20056;-77
2023/04/04 11:15:58;;;;;;;5.45;1.98;;;13.40;95.10;;;;;;5095759;28;20492;-76
2023/04/04 11:18:40;;;;;;;6.75;2.40;;;13.30;93.60;;;;;;5094556;28;20056;-80
2023/04/04 11:21:12;;;;;;;5.53;2.08;;;13.40;92.80;;;;;;5093542;28;20040;-81
2023/04/04 11:23:47;;;;;;;6.35;2.40;;;13.60;95.60;;;;;;5091840;28;20127;-83
2023/04/04 11:26:17;;;;;;;7.63;2.08;;;13.50;94.40;;;;;;5090947;28;20055;-79
2023/04/04 11:28:45;;;;;;;8.43;2.20;;;13.60;93.90;;;;;;5090549;28;20488;-78
2023/04/04 11:31:17;;;;;;;6.45;2.10;;;13.60;95.10;;;;;;5091228;28;20128;-84
2023/04/04 11:34:08;;;;;;;5.78;1.77;;;13.40;91.90;;;;;;5076600;28;20064;-75
2023/04/04 11:36:37;;;;;;;5.38;2.15;;;13.60;92.80;;;;;;5071610;28;20456;-77
2023/04/04 11:39:13;;;;;;;4.97;2.03;;;13.60;93.90;;;;;;5070241;28;20590;-77
2023/04/04 11:41:51;;;;;;;5.35;1.77;;;13.70;93.30;;;;;;5071587;28;20489;-76
2023/04/04 11:44:17;;;;;;;5.28;2.22;;;13.80;92.40;;;;;;5070080;28;20053;-76
2023/04/04 11:46:44;;;;;;;11.27;2.40;;;13.60;94.00;;;;;;5076139;28;20090;-74
2023/04/04 11:49:10;;;;;;;6.63;2.28;;;13.90;94.30;;;;;;5089849;28;20476;-78
2023/04/04 11:51:39;;;;;;;10.15;2.50;;;13.80;93.90;;;;;;5090967;28;20044;-75
2023/04/04 11:54:14;;;;;;;4.20;2.15;;;13.80;93.70;;;;;;5091476;28;20091;-74
2023/04/04 11:56:43;;;;;;;5.22;2.20;;;13.80;93.60;;;;;;5089606;28;20048;-75
2023/04/04 11:59:16;;;;;;;5.40;2.40;;;13.90;93.60;;;;;;5079484;28;20099;-76
2023/04/04 12:01:43;;;;;;;6.68;2.45;;;13.70;93.70;;;;;;5071041;28;20096;-76
2023/04/04 12:04:09;;;;;;;8.82;2.55;;;14.00;93.00;;;;;;5069748;28;20056;-76
2023/04/04 12:06:36;;;;;;;5.57;2.50;;;13.90;92.70;;;;;;5071189;28;20097;-76
2023/04/04 12:09:03;;;;;;;7.97;2.00;;;13.90;92.30;;;;;;5070936;28;20091;-75
2023/04/04 12:11:32;;;;;;;5.28;2.30;;;13.80;93.00;;;;;;5071297;28;20078;-74
2023/04/04 12:13:59;;;;;;;7.88;2.40;;;13.90;90.80;;;;;;5071093;28;20045;-76
2023/04/04 12:16:25;;;;;;;6.40;2.30;;;14.00;93.00;;;;;;5070899;28;20171;-75
2023/04/04 12:18:50;;;;;;;7.22;2.40;;;14.30;92.80;;;;;;5071087;28;20040;-75
2023/04/04 12:21:17;;;;;;;4.90;2.10;;;14.30;92.80;;;;;;5071086;28;20044;-76
2023/04/04 12:23:43;;;;;;;7.32;2.40;;;14.40;92.70;;;;;;5071051;28;20049;-74
2023/04/04 12:26:10;;;;;;;7.15;2.25;;;14.50;92.30;;;;;;5069626;28;20572;-75
2023/04/04 12:28:38;;;;;;;8.15;3.83;;;14.40;92.00;;;;;;5069699;28;20040;-75
2023/04/04 12:31:07;;;;;;;7.63;2.80;;;14.30;92.20;;;;;;5070287;28;20554;-74
2023/04/04 12:33:34;;;;;;;4.80;1.95;;;14.40;92.40;;;;;;5070691;28;20037;-74
2023/04/04 12:36:02;;;;;;;4.13;2.53;;;14.20;91.10;;;;;;5069173;28;20048;-75
2023/04/04 12:38:29;;;;;;;8.63;2.17;;;14.30;92.00;;;;;;5069454;28;20453;-75
2023/04/04 12:40:55;;;;;;;9.55;2.50;;;14.30;91.60;;;;;;5070530;28;20048;-76
2023/04/04 12:43:21;;;;;;;9.63;2.72;;;14.20;91.20;;;;;;5069373;28;20087;-74
2023/04/04 12:45:50;;;;;;;7.32;2.50;;;14.30;91.80;;;;;;5070590;28;20068;-74
2023/04/04 12:48:16;;;;;;;8.30;2.65;;;14.40;90.30;;;;;;5070510;28;20049;-77
2023/04/04 12:50:55;;;;;;;7.57;2.47;;;14.30;90.90;;;;;;5070368;28;20048;-74